sensor_id;sensor_type;location;lat;lon;timestamp;temperature;humidity
2721;DHT22;1368;49.484;11.112;2022-07-21T00:00:38;26.70;93.60
2721;DHT22;1368;49.484;11.112;2022-07-21T00:03:03;26.70;93.90
2721;DHT22;1368;49.484;11.112;2022-07-21T00:05:29;26.60;93.70
2721;DHT22;1368;49.484;11.112;2022-07-21T00:07:54;26.60;93.80
2721;DHT22;1368;49.484;11.112;2022-07-21T00:10:23;26.70;93.80
2721;DHT22;1368;49.484;11.112;2022-07-21T00:12:50;26.80;93.70
2721;DHT22;1368;49.484;11.112;2022-07-21T00:15:17;26.80;93.70
2721;DHT22;1368;49.484;11.112;2022-07-21T00:17:43;26.60;93.90
2721;DHT22;1368;49.484;11.112;2022-07-21T00:20:10;26.50;93.70
2721;DHT22;1368;49.484;11.112;2022-07-21T00:22:36;26.40;94.00
2721;DHT22;1368;49.484;11.112;2022-07-21T00:25:04;26.50;94.10
2721;DHT22;1368;49.484;11.112;2022-07-21T00:27:30;26.30;94.20
2721;DHT22;1368;49.484;11.112;2022-07-21T00:29:55;26.10;94.60
2721;DHT22;1368;49.484;11.112;2022-07-21T00:32:21;26.10;94.60
2721;DHT22;1368;49.484;11.112;2022-07-21T00:34:46;26.00;94.40
2721;DHT22;1368;49.484;11.112;2022-07-21T00:37:12;26.00;94.30
2721;DHT22;1368;49.484;11.112;2022-07-21T00:39:38;25.90;94.20
2721;DHT22;1368;49.484;11.112;2022-07-21T00:42:04;25.70;94.70
2721;DHT22;1368;49.484;11.112;2022-07-21T00:44:30;25.70;95.00
2721;DHT22;1368;49.484;11.112;2022-07-21T00:46:56;25.70;94.80
2721;DHT22;1368;49.484;11.112;2022-07-21T00:49:22;25.80;94.60
2721;DHT22;1368;49.484;11.112;2022-07-21T00:51:49;25.80;94.70
2721;DHT22;1368;49.484;11.112;2022-07-21T00:54:16;25.80;94.80
2721;DHT22;1368;49.484;11.112;2022-07-21T00:56:43;25.80;95.10
2721;DHT22;1368;49.484;11.112;2022-07-21T00:59:10;25.30;96.50
2721;DHT22;1368;49.484;11.112;2022-07-21T01:01:36;25.30;96.60
2721;DHT22;1368;49.484;11.112;2022-07-21T01:04:01;25.40;96.40
2721;DHT22;1368;49.484;11.112;2022-07-21T01:06:27;25.30;96.70
2721;DHT22;1368;49.484;11.112;2022-07-21T01:08:53;25.10;97.30
2721;DHT22;1368;49.484;11.112;2022-07-21T01:11:20;25.00;97.70
2721;DHT22;1368;49.484;11.112;2022-07-21T01:13:47;25.20;98.30
2721;DHT22;1368;49.484;11.112;2022-07-21T01:16:13;25.20;98.60
2721;DHT22;1368;49.484;11.112;2022-07-21T01:18:39;25.40;99.10
2721;DHT22;1368;49.484;11.112;2022-07-21T01:21:16;25.50;99.10
2721;DHT22;1368;49.484;11.112;2022-07-21T01:23:44;25.40;99.00
2721;DHT22;1368;49.484;11.112;2022-07-21T01:26:09;25.00;99.90
2721;DHT22;1368;49.484;11.112;2022-07-21T01:28:35;24.70;99.90
2721;DHT22;1368;49.484;11.112;2022-07-21T01:31:00;24.70;99.90
2721;DHT22;1368;49.484;11.112;2022-07-21T01:33:26;24.70;99.90
2721;DHT22;1368;49.484;11.112;2022-07-21T01:35:51;24.60;99.90
2721;DHT22;1368;49.484;11.112;2022-07-21T01:38:17;24.50;99.90
2721;DHT22;1368;49.484;11.112;2022-07-21T01:41:01;24.40;99.90
2721;DHT22;1368;49.484;11.112;2022-07-21T01:43:45;24.30;99.90
2721;DHT22;1368;49.484;11.112;2022-07-21T01:46:12;24.10;99.90
2721;DHT22;1368;49.484;11.112;2022-07-21T01:48:44;24.10;99.90
2721;DHT22;1368;49.484;11.112;2022-07-21T01:51:10;24.10;99.90
2721;DHT22;1368;49.484;11.112;2022-07-21T01:53:36;24.10;99.90
2721;DHT22;1368;49.484;11.112;2022-07-21T01:56:02;24.10;99.90
2721;DHT22;1368;49.484;11.112;2022-07-21T01:58:29;24.00;99.90
2721;DHT22;1368;49.484;11.112;2022-07-21T02:00:55;23.90;99.90
2721;DHT22;1368;49.484;11.112;2022-07-21T02:03:21;23.90;99.90
2721;DHT22;1368;49.484;11.112;2022-07-21T02:05:46;23.80;99.90
2721;DHT22;1368;49.484;11.112;2022-07-21T02:08:12;23.80;99.90
2721;DHT22;1368;49.484;11.112;2022-07-21T02:10:37;23.80;99.90
2721;DHT22;1368;49.484;11.112;2022-07-21T02:13:03;23.70;99.90
2721;DHT22;1368;49.484;11.112;2022-07-21T02:15:29;23.60;99.90
2721;DHT22;1368;49.484;11.112;2022-07-21T02:17:56;23.60;99.90
2721;DHT22;1368;49.484;11.112;2022-07-21T02:20:22;23.50;99.90
2721;DHT22;1368;49.484;11.112;2022-07-21T02:22:47;23.40;99.90
2721;DHT22;1368;49.484;11.112;2022-07-21T02:25:14;23.40;99.90
2721;DHT22;1368;49.484;11.112;2022-07-21T02:27:40;23.40;99.90
2721;DHT22;1368;49.484;11.112;2022-07-21T02:30:06;23.40;99.90
2721;DHT22;1368;49.484;11.112;2022-07-21T02:32:32;23.40;99.90
2721;DHT22;1368;49.484;11.112;2022-07-21T02:34:57;23.50;99.90
2721;DHT22;1368;49.484;11.112;2022-07-21T02:37:23;23.40;99.90
2721;DHT22;1368;49.484;11.112;2022-07-21T02:39:49;23.40;99.90
2721;DHT22;1368;49.484;11.112;2022-07-21T02:42:14;23.50;99.90
2721;DHT22;1368;49.484;11.112;2022-07-21T02:44:40;23.50;99.90
2721;DHT22;1368;49.484;11.112;2022-07-21T02:47:06;23.60;99.90
2721;DHT22;1368;49.484;11.112;2022-07-21T02:49:31;23.60;99.90
2721;DHT22;1368;49.484;11.112;2022-07-21T02:51:57;23.60;99.90
2721;DHT22;1368;49.484;11.112;2022-07-21T02:54:23;23.60;99.90
2721;DHT22;1368;49.484;11.112;2022-07-21T02:56:48;23.70;99.90
2721;DHT22;1368;49.484;11.112;2022-07-21T02:59:14;23.70;99.90
2721;DHT22;1368;49.484;11.112;2022-07-21T03:01:39;23.70;99.90
2721;DHT22;1368;49.484;11.112;2022-07-21T03:04:05;23.70;99.90
2721;DHT22;1368;49.484;11.112;2022-07-21T03:06:31;23.70;99.90
2721;DHT22;1368;49.484;11.112;2022-07-21T03:08:57;23.70;99.90
2721;DHT22;1368;49.484;11.112;2022-07-21T03:11:22;23.80;99.90
2721;DHT22;1368;49.484;11.112;2022-07-21T03:13:48;23.80;99.90
2721;DHT22;1368;49.484;11.112;2022-07-21T03:16:13;23.80;99.90
2721;DHT22;1368;49.484;11.112;2022-07-21T03:18:39;23.70;99.90
2721;DHT22;1368;49.484;11.112;2022-07-21T03:21:06;23.70;99.90
2721;DHT22;1368;49.484;11.112;2022-07-21T03:23:32;23.60;99.90
2721;DHT22;1368;49.484;11.112;2022-07-21T03:25:58;23.50;99.90
2721;DHT22;1368;49.484;11.112;2022-07-21T03:28:23;23.40;99.90
2721;DHT22;1368;49.484;11.112;2022-07-21T03:30:49;23.20;99.90
2721;DHT22;1368;49.484;11.112;2022-07-21T03:33:14;23.10;99.90
2721;DHT22;1368;49.484;11.112;2022-07-21T03:35:40;23.10;99.90
2721;DHT22;1368;49.484;11.112;2022-07-21T03:38:07;23.10;99.90
2721;DHT22;1368;49.484;11.112;2022-07-21T03:40:35;23.20;99.90
2721;DHT22;1368;49.484;11.112;2022-07-21T03:43:02;23.10;99.90
2721;DHT22;1368;49.484;11.112;2022-07-21T03:45:30;23.10;99.90
2721;DHT22;1368;49.484;11.112;2022-07-21T03:47:59;23.10;99.90
2721;DHT22;1368;49.484;11.112;2022-07-21T03:50:25;23.10;99.90
2721;DHT22;1368;49.484;11.112;2022-07-21T03:52:51;23.10;99.90
2721;DHT22;1368;49.484;11.112;2022-07-21T03:55:17;23.50;99.90
2721;DHT22;1368;49.484;11.112;2022-07-21T03:57:52;23.00;99.90
2721;DHT22;1368;49.484;11.112;2022-07-21T04:00:38;23.00;99.90
2721;DHT22;1368;49.484;11.112;2022-07-21T04:03:05;23.20;99.90
2721;DHT22;1368;49.484;11.112;2022-07-21T04:05:32;23.30;99.90
2721;DHT22;1368;49.484;11.112;2022-07-21T04:07:58;23.30;99.90
2721;DHT22;1368;49.484;11.112;2022-07-21T04:10:26;23.40;99.90
2721;DHT22;1368;49.484;11.112;2022-07-21T04:12:54;23.40;99.90
2721;DHT22;1368;49.484;11.112;2022-07-21T04:15:20;23.40;99.90
2721;DHT22;1368;49.484;11.112;2022-07-21T04:17:46;23.50;99.90
2721;DHT22;1368;49.484;11.112;2022-07-21T04:20:13;24.00;99.90
2721;DHT22;1368;49.484;11.112;2022-07-21T04:22:40;23.40;99.90
2721;DHT22;1368;49.484;11.112;2022-07-21T04:25:06;23.50;99.90
2721;DHT22;1368;49.484;11.112;2022-07-21T04:27:33;23.60;99.90
2721;DHT22;1368;49.484;11.112;2022-07-21T04:29:59;23.50;99.90
2721;DHT22;1368;49.484;11.112;2022-07-21T04:32:25;23.40;99.90
2721;DHT22;1368;49.484;11.112;2022-07-21T04:34:51;23.40;99.90
2721;DHT22;1368;49.484;11.112;2022-07-21T04:37:16;23.40;99.90
2721;DHT22;1368;49.484;11.112;2022-07-21T04:39:42;23.50;99.90
2721;DHT22;1368;49.484;11.112;2022-07-21T04:42:07;23.40;99.90
2721;DHT22;1368;49.484;11.112;2022-07-21T04:44:33;23.40;99.90
2721;DHT22;1368;49.484;11.112;2022-07-21T04:46:59;23.50;99.90
2721;DHT22;1368;49.484;11.112;2022-07-21T04:49:24;23.60;99.90
2721;DHT22;1368;49.484;11.112;2022-07-21T04:51:50;23.70;99.90
2721;DHT22;1368;49.484;11.112;2022-07-21T04:54:16;23.70;99.90
2721;DHT22;1368;49.484;11.112;2022-07-21T04:56:42;23.70;99.90
2721;DHT22;1368;49.484;11.112;2022-07-21T04:59:09;23.70;99.90
2721;DHT22;1368;49.484;11.112;2022-07-21T05:01:35;23.60;99.90
2721;DHT22;1368;49.484;11.112;2022-07-21T05:04:01;23.50;99.90
2721;DHT22;1368;49.484;11.112;2022-07-21T05:06:27;23.50;99.90
2721;DHT22;1368;49.484;11.112;2022-07-21T05:08:52;23.50;99.90
2721;DHT22;1368;49.484;11.112;2022-07-21T05:11:18;23.50;99.90
2721;DHT22;1368;49.484;11.112;2022-07-21T05:13:43;23.40;99.90
2721;DHT22;1368;49.484;11.112;2022-07-21T05:16:09;23.40;99.90
2721;DHT22;1368;49.484;11.112;2022-07-21T05:18:34;23.30;99.90
2721;DHT22;1368;49.484;11.112;2022-07-21T05:21:00;23.30;99.90
2721;DHT22;1368;49.484;11.112;2022-07-21T05:23:26;23.20;99.90
2721;DHT22;1368;49.484;11.112;2022-07-21T05:25:51;22.90;99.90
2721;DHT22;1368;49.484;11.112;2022-07-21T05:28:17;22.90;99.90
2721;DHT22;1368;49.484;11.112;2022-07-21T05:30:42;23.00;99.90
2721;DHT22;1368;49.484;11.112;2022-07-21T05:33:08;23.10;99.90
2721;DHT22;1368;49.484;11.112;2022-07-21T05:35:34;23.10;99.90
2721;DHT22;1368;49.484;11.112;2022-07-21T05:37:59;23.10;99.90
2721;DHT22;1368;49.484;11.112;2022-07-21T05:40:25;23.10;99.90
2721;DHT22;1368;49.484;11.112;2022-07-21T05:42:51;23.20;99.90
2721;DHT22;1368;49.484;11.112;2022-07-21T05:45:16;23.30;99.90
2721;DHT22;1368;49.484;11.112;2022-07-21T05:47:42;23.20;99.90
2721;DHT22;1368;49.484;11.112;2022-07-21T05:50:09;23.20;99.90
2721;DHT22;1368;49.484;11.112;2022-07-21T05:52:35;23.30;99.90
2721;DHT22;1368;49.484;11.112;2022-07-21T05:55:00;23.40;99.90
2721;DHT22;1368;49.484;11.112;2022-07-21T05:57:26;23.30;99.90
2721;DHT22;1368;49.484;11.112;2022-07-21T05:59:52;23.20;99.90
2721;DHT22;1368;49.484;11.112;2022-07-21T06:02:18;23.20;99.90
2721;DHT22;1368;49.484;11.112;2022-07-21T06:04:43;23.20;99.90
2721;DHT22;1368;49.484;11.112;2022-07-21T06:07:09;23.10;99.90
2721;DHT22;1368;49.484;11.112;2022-07-21T06:09:35;23.10;99.90
2721;DHT22;1368;49.484;11.112;2022-07-21T06:12:00;23.20;99.90
2721;DHT22;1368;49.484;11.112;2022-07-21T06:14:26;23.30;99.90
2721;DHT22;1368;49.484;11.112;2022-07-21T06:16:52;23.40;99.90
2721;DHT22;1368;49.484;11.112;2022-07-21T06:19:17;23.50;99.90
2721;DHT22;1368;49.484;11.112;2022-07-21T06:21:43;24.10;99.90
2721;DHT22;1368;49.484;11.112;2022-07-21T06:24:09;23.60;99.90
2721;DHT22;1368;49.484;11.112;2022-07-21T06:26:38;23.70;99.90
2721;DHT22;1368;49.484;11.112;2022-07-21T06:29:07;23.80;99.90
2721;DHT22;1368;49.484;11.112;2022-07-21T06:31:33;23.90;99.90
2721;DHT22;1368;49.484;11.112;2022-07-21T06:33:59;24.10;99.90
2721;DHT22;1368;49.484;11.112;2022-07-21T06:36:24;24.20;99.90
2721;DHT22;1368;49.484;11.112;2022-07-21T06:38:50;24.30;99.90
2721;DHT22;1368;49.484;11.112;2022-07-21T06:41:16;24.40;99.90
2721;DHT22;1368;49.484;11.112;2022-07-21T06:43:41;24.40;99.90
2721;DHT22;1368;49.484;11.112;2022-07-21T06:46:07;24.50;99.90
2721;DHT22;1368;49.484;11.112;2022-07-21T06:48:32;24.70;99.90
2721;DHT22;1368;49.484;11.112;2022-07-21T06:50:58;24.90;99.90
2721;DHT22;1368;49.484;11.112;2022-07-21T06:53:24;25.00;99.90
2721;DHT22;1368;49.484;11.112;2022-07-21T06:55:51;25.00;99.90
2721;DHT22;1368;49.484;11.112;2022-07-21T06:58:22;25.10;99.90
2721;DHT22;1368;49.484;11.112;2022-07-21T07:00:48;25.30;99.90
2721;DHT22;1368;49.484;11.112;2022-07-21T07:03:16;25.30;99.90
2721;DHT22;1368;49.484;11.112;2022-07-21T07:05:43;25.40;99.90
2721;DHT22;1368;49.484;11.112;2022-07-21T07:08:09;25.30;99.90
2721;DHT22;1368;49.484;11.112;2022-07-21T07:10:35;25.50;99.90
2721;DHT22;1368;49.484;11.112;2022-07-21T07:13:00;25.70;99.90
2721;DHT22;1368;49.484;11.112;2022-07-21T07:15:27;26.00;99.90
2721;DHT22;1368;49.484;11.112;2022-07-21T07:17:53;26.20;99.90
2721;DHT22;1368;49.484;11.112;2022-07-21T07:20:19;26.40;99.90
2721;DHT22;1368;49.484;11.112;2022-07-21T07:22:45;26.50;99.90
2721;DHT22;1368;49.484;11.112;2022-07-21T07:25:10;26.80;99.90
2721;DHT22;1368;49.484;11.112;2022-07-21T07:27:36;26.90;99.90
2721;DHT22;1368;49.484;11.112;2022-07-21T07:30:03;26.90;99.90
2721;DHT22;1368;49.484;11.112;2022-07-21T07:32:29;26.80;99.90
2721;DHT22;1368;49.484;11.112;2022-07-21T07:34:54;27.00;99.90
2721;DHT22;1368;49.484;11.112;2022-07-21T07:37:20;26.90;99.90
2721;DHT22;1368;49.484;11.112;2022-07-21T07:39:46;27.00;99.90
2721;DHT22;1368;49.484;11.112;2022-07-21T07:42:12;27.20;99.90
2721;DHT22;1368;49.484;11.112;2022-07-21T07:44:37;27.10;99.90
2721;DHT22;1368;49.484;11.112;2022-07-21T07:47:03;27.10;99.90
2721;DHT22;1368;49.484;11.112;2022-07-21T07:49:30;27.40;99.90
2721;DHT22;1368;49.484;11.112;2022-07-21T07:51:57;27.80;99.90
2721;DHT22;1368;49.484;11.112;2022-07-21T07:54:23;28.20;99.90
2721;DHT22;1368;49.484;11.112;2022-07-21T07:56:48;28.60;99.90
2721;DHT22;1368;49.484;11.112;2022-07-21T07:59:14;28.70;99.90
2721;DHT22;1368;49.484;11.112;2022-07-21T08:01:39;28.50;99.90
2721;DHT22;1368;49.484;11.112;2022-07-21T08:04:05;28.30;99.90
2721;DHT22;1368;49.484;11.112;2022-07-21T08:06:31;28.20;99.90
2721;DHT22;1368;49.484;11.112;2022-07-21T08:08:56;28.10;99.90
2721;DHT22;1368;49.484;11.112;2022-07-21T08:11:22;28.20;99.90
2721;DHT22;1368;49.484;11.112;2022-07-21T08:13:48;28.30;99.90
2721;DHT22;1368;49.484;11.112;2022-07-21T08:16:13;28.20;99.90
2721;DHT22;1368;49.484;11.112;2022-07-21T08:18:41;28.10;99.90
2721;DHT22;1368;49.484;11.112;2022-07-21T08:21:08;28.20;99.90
2721;DHT22;1368;49.484;11.112;2022-07-21T08:23:33;28.30;99.90
2721;DHT22;1368;49.484;11.112;2022-07-21T08:25:59;28.50;99.90
2721;DHT22;1368;49.484;11.112;2022-07-21T08:28:24;28.60;99.90
2721;DHT22;1368;49.484;11.112;2022-07-21T08:30:50;28.60;99.90
2721;DHT22;1368;49.484;11.112;2022-07-21T08:33:16;28.60;99.90
2721;DHT22;1368;49.484;11.112;2022-07-21T08:35:42;29.00;99.90
2721;DHT22;1368;49.484;11.112;2022-07-21T08:38:09;29.70;99.90
2721;DHT22;1368;49.484;11.112;2022-07-21T08:40:39;30.10;99.90
2721;DHT22;1368;49.484;11.112;2022-07-21T08:43:05;30.20;99.90
2721;DHT22;1368;49.484;11.112;2022-07-21T08:45:32;30.50;99.90
2721;DHT22;1368;49.484;11.112;2022-07-21T08:47:59;30.80;99.90
2721;DHT22;1368;49.484;11.112;2022-07-21T08:50:27;30.70;99.90
2721;DHT22;1368;49.484;11.112;2022-07-21T08:52:52;30.60;99.90
2721;DHT22;1368;49.484;11.112;2022-07-21T08:55:18;30.20;99.90
2721;DHT22;1368;49.484;11.112;2022-07-21T08:57:44;30.30;99.90
2721;DHT22;1368;49.484;11.112;2022-07-21T09:00:10;30.00;99.90
2721;DHT22;1368;49.484;11.112;2022-07-21T09:02:37;29.80;99.90
2721;DHT22;1368;49.484;11.112;2022-07-21T09:05:05;30.10;99.90
2721;DHT22;1368;49.484;11.112;2022-07-21T09:07:55;30.60;99.70
2721;DHT22;1368;49.484;11.112;2022-07-21T09:10:24;30.30;99.90
2721;DHT22;1368;49.484;11.112;2022-07-21T09:12:55;30.90;99.10
2721;DHT22;1368;49.484;11.112;2022-07-21T09:15:23;31.70;97.30
2721;DHT22;1368;49.484;11.112;2022-07-21T09:20:34;32.00;94.70
2721;DHT22;1368;49.484;11.112;2022-07-21T09:23:15;31.80;94.70
2721;DHT22;1368;49.484;11.112;2022-07-21T09:25:45;31.70;95.90
2721;DHT22;1368;49.484;11.112;2022-07-21T09:28:29;32.10;94.10
2721;DHT22;1368;49.484;11.112;2022-07-21T09:31:02;32.60;94.80
2721;DHT22;1368;49.484;11.112;2022-07-21T09:33:43;33.10;93.30
2721;DHT22;1368;49.484;11.112;2022-07-21T09:36:16;33.30;91.40
2721;DHT22;1368;49.484;11.112;2022-07-21T09:38:45;33.50;90.80
2721;DHT22;1368;49.484;11.112;2022-07-21T09:41:22;33.20;90.40
2721;DHT22;1368;49.484;11.112;2022-07-21T09:43:53;32.80;90.90
2721;DHT22;1368;49.484;11.112;2022-07-21T09:46:21;32.20;91.10
2721;DHT22;1368;49.484;11.112;2022-07-21T09:48:50;32.20;91.10
2721;DHT22;1368;49.484;11.112;2022-07-21T09:53:59;32.60;91.30
2721;DHT22;1368;49.484;11.112;2022-07-21T09:56:28;32.80;89.90
2721;DHT22;1368;49.484;11.112;2022-07-21T09:58:55;33.10;90.30
2721;DHT22;1368;49.484;11.112;2022-07-21T10:01:22;33.60;89.70
2721;DHT22;1368;49.484;11.112;2022-07-21T10:03:49;33.70;87.90
2721;DHT22;1368;49.484;11.112;2022-07-21T10:06:17;33.00;87.40
2721;DHT22;1368;49.484;11.112;2022-07-21T10:08:43;33.10;88.00
2721;DHT22;1368;49.484;11.112;2022-07-21T10:11:10;33.50;88.30
2721;DHT22;1368;49.484;11.112;2022-07-21T10:13:37;34.00;86.20
2721;DHT22;1368;49.484;11.112;2022-07-21T10:16:04;34.50;85.50
2721;DHT22;1368;49.484;11.112;2022-07-21T10:18:35;34.90;82.40
2721;DHT22;1368;49.484;11.112;2022-07-21T10:24:06;35.70;79.50
2721;DHT22;1368;49.484;11.112;2022-07-21T10:26:34;35.20;77.60
2721;DHT22;1368;49.484;11.112;2022-07-21T10:29:00;34.90;79.10
2721;DHT22;1368;49.484;11.112;2022-07-21T10:31:26;34.40;78.50
2721;DHT22;1368;49.484;11.112;2022-07-21T10:33:55;34.00;80.70
2721;DHT22;1368;49.484;11.112;2022-07-21T10:41:46;32.50;83.40
2721;DHT22;1368;49.484;11.112;2022-07-21T10:47:03;32.90;82.00
2721;DHT22;1368;49.484;11.112;2022-07-21T10:49:55;32.80;81.10
2721;DHT22;1368;49.484;11.112;2022-07-21T10:57:38;32.90;79.90
2721;DHT22;1368;49.484;11.112;2022-07-21T11:00:23;32.80;79.60
2721;DHT22;1368;49.484;11.112;2022-07-21T11:02:52;32.40;80.10
2721;DHT22;1368;49.484;11.112;2022-07-21T11:05:18;32.10;81.30
2721;DHT22;1368;49.484;11.112;2022-07-21T11:08:10;31.90;82.60
2721;DHT22;1368;49.484;11.112;2022-07-21T11:10:37;32.30;81.20
2721;DHT22;1368;49.484;11.112;2022-07-21T11:16:04;33.40;78.00
2721;DHT22;1368;49.484;11.112;2022-07-21T11:18:31;33.70;75.90
2721;DHT22;1368;49.484;11.112;2022-07-21T11:23:40;34.00;76.70
2721;DHT22;1368;49.484;11.112;2022-07-21T11:26:06;34.60;75.10
2721;DHT22;1368;49.484;11.112;2022-07-21T11:28:32;34.90;70.30
2721;DHT22;1368;49.484;11.112;2022-07-21T11:31:19;34.80;70.00
2721;DHT22;1368;49.484;11.112;2022-07-21T11:33:50;34.70;66.60
2721;DHT22;1368;49.484;11.112;2022-07-21T11:36:45;34.20;68.50
2721;DHT22;1368;49.484;11.112;2022-07-21T11:39:15;34.00;67.90
2721;DHT22;1368;49.484;11.112;2022-07-21T11:41:44;34.00;69.90
2721;DHT22;1368;49.484;11.112;2022-07-21T11:44:22;34.20;69.00
2721;DHT22;1368;49.484;11.112;2022-07-21T11:46:52;34.30;68.70
2721;DHT22;1368;49.484;11.112;2022-07-21T11:49:18;34.60;68.50
2721;DHT22;1368;49.484;11.112;2022-07-21T11:51:55;34.60;68.50
2721;DHT22;1368;49.484;11.112;2022-07-21T11:54:31;34.60;66.50
2721;DHT22;1368;49.484;11.112;2022-07-21T11:56:59;34.50;69.00
2721;DHT22;1368;49.484;11.112;2022-07-21T11:59:25;34.50;66.90
2721;DHT22;1368;49.484;11.112;2022-07-21T12:09:50;33.50;67.10
2721;DHT22;1368;49.484;11.112;2022-07-21T12:12:28;33.40;66.00
2721;DHT22;1368;49.484;11.112;2022-07-21T12:14:53;33.20;65.50
2721;DHT22;1368;49.484;11.112;2022-07-21T12:17:37;32.90;67.00
2721;DHT22;1368;49.484;11.112;2022-07-21T12:20:04;32.90;66.70
2721;DHT22;1368;49.484;11.112;2022-07-21T12:22:39;33.10;67.30
2721;DHT22;1368;49.484;11.112;2022-07-21T12:25:07;33.00;67.30
2721;DHT22;1368;49.484;11.112;2022-07-21T12:27:38;32.90;68.00
2721;DHT22;1368;49.484;11.112;2022-07-21T12:30:06;33.00;66.50
2721;DHT22;1368;49.484;11.112;2022-07-21T12:35:04;33.10;65.90
2721;DHT22;1368;49.484;11.112;2022-07-21T12:37:57;32.80;64.30
2721;DHT22;1368;49.484;11.112;2022-07-21T12:40:24;32.60;65.70
2721;DHT22;1368;49.484;11.112;2022-07-21T12:42:51;32.70;66.70
2721;DHT22;1368;49.484;11.112;2022-07-21T12:45:19;33.20;65.40
2721;DHT22;1368;49.484;11.112;2022-07-21T12:48:08;33.30;66.80
2721;DHT22;1368;49.484;11.112;2022-07-21T12:50:35;33.10;66.30
2721;DHT22;1368;49.484;11.112;2022-07-21T12:53:00;33.10;66.70
2721;DHT22;1368;49.484;11.112;2022-07-21T12:55:26;33.00;66.60
2721;DHT22;1368;49.484;11.112;2022-07-21T12:57:52;33.30;66.60
2721;DHT22;1368;49.484;11.112;2022-07-21T13:00:17;33.40;65.00
2721;DHT22;1368;49.484;11.112;2022-07-21T13:02:52;33.30;63.50
2721;DHT22;1368;49.484;11.112;2022-07-21T13:05:19;32.90;63.90
2721;DHT22;1368;49.484;11.112;2022-07-21T13:07:44;33.00;64.40
2721;DHT22;1368;49.484;11.112;2022-07-21T13:10:10;33.00;63.80
2721;DHT22;1368;49.484;11.112;2022-07-21T13:12:36;32.90;65.70
2721;DHT22;1368;49.484;11.112;2022-07-21T13:15:02;32.70;64.60
2721;DHT22;1368;49.484;11.112;2022-07-21T13:17:28;32.70;65.30
2721;DHT22;1368;49.484;11.112;2022-07-21T13:19:53;32.80;65.40
2721;DHT22;1368;49.484;11.112;2022-07-21T13:22:19;33.10;64.70
2721;DHT22;1368;49.484;11.112;2022-07-21T13:24:45;33.00;64.90
2721;DHT22;1368;49.484;11.112;2022-07-21T13:27:10;32.70;65.70
2721;DHT22;1368;49.484;11.112;2022-07-21T13:29:36;32.70;65.00
2721;DHT22;1368;49.484;11.112;2022-07-21T13:32:02;32.90;64.40
2721;DHT22;1368;49.484;11.112;2022-07-21T13:34:28;32.90;66.00
2721;DHT22;1368;49.484;11.112;2022-07-21T13:36:53;33.30;65.60
2721;DHT22;1368;49.484;11.112;2022-07-21T13:39:19;33.60;63.40
2721;DHT22;1368;49.484;11.112;2022-07-21T13:41:46;33.40;63.80
2721;DHT22;1368;49.484;11.112;2022-07-21T13:44:11;33.40;63.60
2721;DHT22;1368;49.484;11.112;2022-07-21T13:46:37;33.10;63.60
2721;DHT22;1368;49.484;11.112;2022-07-21T13:49:03;32.90;63.70
2721;DHT22;1368;49.484;11.112;2022-07-21T13:51:29;32.70;62.60
2721;DHT22;1368;49.484;11.112;2022-07-21T13:53:54;32.80;63.10
2721;DHT22;1368;49.484;11.112;2022-07-21T13:56:20;32.70;62.40
2721;DHT22;1368;49.484;11.112;2022-07-21T13:58:46;32.70;63.50
2721;DHT22;1368;49.484;11.112;2022-07-21T14:01:13;32.70;63.40
2721;DHT22;1368;49.484;11.112;2022-07-21T14:03:39;32.90;62.50
2721;DHT22;1368;49.484;11.112;2022-07-21T14:06:05;32.80;63.40
2721;DHT22;1368;49.484;11.112;2022-07-21T14:08:31;32.60;62.90
2721;DHT22;1368;49.484;11.112;2022-07-21T14:10:56;32.50;61.80
2721;DHT22;1368;49.484;11.112;2022-07-21T14:13:22;32.40;62.90
2721;DHT22;1368;49.484;11.112;2022-07-21T14:15:48;32.50;61.70
2721;DHT22;1368;49.484;11.112;2022-07-21T14:18:13;32.70;62.00
2721;DHT22;1368;49.484;11.112;2022-07-21T14:20:39;32.80;62.10
2721;DHT22;1368;49.484;11.112;2022-07-21T14:23:05;33.00;61.90
2721;DHT22;1368;49.484;11.112;2022-07-21T14:25:31;33.30;60.20
2721;DHT22;1368;49.484;11.112;2022-07-21T14:27:57;33.60;60.20
2721;DHT22;1368;49.484;11.112;2022-07-21T14:30:27;33.70;59.80
2721;DHT22;1368;49.484;11.112;2022-07-21T14:33:01;33.70;59.10
2721;DHT22;1368;49.484;11.112;2022-07-21T14:35:27;33.20;58.20
2721;DHT22;1368;49.484;11.112;2022-07-21T14:37:54;33.00;58.70
2721;DHT22;1368;49.484;11.112;2022-07-21T14:40:20;33.00;58.90
2721;DHT22;1368;49.484;11.112;2022-07-21T14:42:47;32.80;59.70
2721;DHT22;1368;49.484;11.112;2022-07-21T14:45:14;32.90;59.70
2721;DHT22;1368;49.484;11.112;2022-07-21T14:47:40;32.80;59.60
2721;DHT22;1368;49.484;11.112;2022-07-21T14:50:06;32.80;59.80
2721;DHT22;1368;49.484;11.112;2022-07-21T14:52:32;33.00;60.30
2721;DHT22;1368;49.484;11.112;2022-07-21T14:54:58;32.80;59.60
2721;DHT22;1368;49.484;11.112;2022-07-21T14:57:23;32.70;59.50
2721;DHT22;1368;49.484;11.112;2022-07-21T14:59:49;32.40;59.70
2721;DHT22;1368;49.484;11.112;2022-07-21T15:02:15;32.10;58.30
2721;DHT22;1368;49.484;11.112;2022-07-21T15:04:41;32.10;58.50
2721;DHT22;1368;49.484;11.112;2022-07-21T15:07:08;32.20;57.80
2721;DHT22;1368;49.484;11.112;2022-07-21T15:09:34;32.30;57.00
2721;DHT22;1368;49.484;11.112;2022-07-21T15:11:59;32.40;56.40
2721;DHT22;1368;49.484;11.112;2022-07-21T15:14:25;32.30;58.70
2721;DHT22;1368;49.484;11.112;2022-07-21T15:16:50;32.20;57.70
2721;DHT22;1368;49.484;11.112;2022-07-21T15:19:16;32.10;58.10
2721;DHT22;1368;49.484;11.112;2022-07-21T15:21:42;32.00;57.90
2721;DHT22;1368;49.484;11.112;2022-07-21T15:24:08;32.10;57.90
2721;DHT22;1368;49.484;11.112;2022-07-21T15:26:33;31.90;57.70
2721;DHT22;1368;49.484;11.112;2022-07-21T15:28:59;31.60;58.60
2721;DHT22;1368;49.484;11.112;2022-07-21T15:31:25;31.70;57.60
2721;DHT22;1368;49.484;11.112;2022-07-21T15:33:50;31.70;57.80
2721;DHT22;1368;49.484;11.112;2022-07-21T15:36:19;31.50;57.80
2721;DHT22;1368;49.484;11.112;2022-07-21T15:38:44;31.50;58.00
2721;DHT22;1368;49.484;11.112;2022-07-21T15:41:10;31.20;58.90
2721;DHT22;1368;49.484;11.112;2022-07-21T15:43:36;31.10;59.60
2721;DHT22;1368;49.484;11.112;2022-07-21T15:46:01;31.10;59.20
2721;DHT22;1368;49.484;11.112;2022-07-21T15:48:27;31.10;59.70
2721;DHT22;1368;49.484;11.112;2022-07-21T15:50:52;31.10;59.90
2721;DHT22;1368;49.484;11.112;2022-07-21T15:53:18;31.40;59.40
2721;DHT22;1368;49.484;11.112;2022-07-21T15:55:43;31.40;59.20
2721;DHT22;1368;49.484;11.112;2022-07-21T15:58:09;31.60;58.50
2721;DHT22;1368;49.484;11.112;2022-07-21T16:00:34;31.40;58.40
2721;DHT22;1368;49.484;11.112;2022-07-21T16:03:01;31.10;59.60
2721;DHT22;1368;49.484;11.112;2022-07-21T16:05:27;31.10;59.20
2721;DHT22;1368;49.484;11.112;2022-07-21T16:07:54;31.10;59.70
2721;DHT22;1368;49.484;11.112;2022-07-21T16:10:21;31.10;60.10
2721;DHT22;1368;49.484;11.112;2022-07-21T16:12:49;31.10;59.70
2721;DHT22;1368;49.484;11.112;2022-07-21T16:15:17;30.90;59.80
2721;DHT22;1368;49.484;11.112;2022-07-21T16:17:43;30.90;59.80
2721;DHT22;1368;49.484;11.112;2022-07-21T16:20:10;31.00;59.80
2721;DHT22;1368;49.484;11.112;2022-07-21T16:22:36;31.10;59.30